Time;durP1;ratioP1;P1;durP2;ratioP2;P2;SDS_P1;SDS_P2;PMS_P1;PMS_P2;Temp;Humidity;BMP_temperature;BMP_pressure;BME280_temperature;BME280_humidity;BME280_pressure;Samples;Min_cycle;Max_cycle;Signal;HPM_P1;HPM_P2
2023/07/11 00:00:08;;;;;;;7.67;5.70;;;;;;;;;;6250595;28;20248;-68
2023/07/11 00:03:09;;;;;;;10.30;6.27;;;;;;;;;;6258854;28;20190;-68
2023/07/11 00:06:13;;;;;;;6.40;5.70;;;;;;;;;;6250602;28;20198;-68
2023/07/11 00:09:14;;;;;;;7.43;5.67;;;;;;;;;;6263287;28;20247;-68
2023/07/11 00:12:16;;;;;;;7.00;5.60;;;;;;;;;;6275952;28;20275;-68
2023/07/11 00:15:18;;;;;;;6.73;6.13;;;;;;;;;;6271229;28;20177;-68
2023/07/11 00:18:19;;;;;;;6.50;5.57;;;;;;;;;;6271338;28;20193;-68
2023/07/11 00:21:20;;;;;;;6.13;5.50;;;;;;;;;;6247676;28;20205;-68
2023/07/11 00:24:21;;;;;;;7.80;5.57;;;;;;;;;;6232640;28;20288;-68
2023/07/11 00:27:23;;;;;;;8.40;5.87;;;;;;;;;;6253451;28;20245;-68
2023/07/11 00:30:24;;;;;;;6.50;5.73;;;;;;;;;;6268668;28;20174;-68
2023/07/11 00:33:25;;;;;;;10.83;5.50;;;;;;;;;;6245265;28;20206;-68
2023/07/11 00:36:26;;;;;;;6.60;5.47;;;;;;;;;;6258548;28;20193;-68
2023/07/11 00:39:28;;;;;;;7.83;5.47;;;;;;;;;;6255236;28;20191;-68
2023/07/11 00:42:29;;;;;;;7.07;5.87;;;;;;;;;;6272710;28;20274;-68
2023/07/11 00:45:48;;;;;;;6.00;5.40;;;;;;;;;;6249563;28;20198;-68
2023/07/11 00:48:58;;;;;;;9.83;5.50;;;;;;;;;;6265672;28;20187;-67
2023/07/11 00:52:00;;;;;;;5.40;4.93;;;;;;;;;;6263628;28;20214;-68
2023/07/11 00:55:03;;;;;;;7.80;5.63;;;;;;;;;;6268580;28;20195;-67
2023/07/11 00:58:05;;;;;;;7.83;6.00;;;;;;;;;;6268990;28;20182;-68
2023/07/11 01:01:06;;;;;;;9.47;5.60;;;;;;;;;;6247159;28;20191;-68
2023/07/11 01:04:07;;;;;;;7.70;5.90;;;;;;;;;;6277547;28;20243;-68
2023/07/11 01:07:10;;;;;;;9.13;6.37;;;;;;;;;;6239722;28;20262;-68
2023/07/11 01:10:11;;;;;;;6.60;5.93;;;;;;;;;;6268626;28;20239;-68
2023/07/11 01:13:12;;;;;;;7.20;5.67;;;;;;;;;;6254998;28;20216;-68
2023/07/11 01:16:13;;;;;;;6.43;5.00;;;;;;;;;;6248176;28;20181;-68
2023/07/11 01:19:14;;;;;;;9.07;6.17;;;;;;;;;;6275917;28;20200;-68
2023/07/11 01:22:15;;;;;;;6.80;6.20;;;;;;;;;;6253878;28;20182;-68
2023/07/11 01:25:16;;;;;;;10.20;6.20;;;;;;;;;;6269375;28;20181;-68
2023/07/11 01:28:17;;;;;;;9.70;6.07;;;;;;;;;;6257491;28;20266;-68
2023/07/11 01:31:18;;;;;;;6.10;5.50;;;;;;;;;;6247327;28;20186;-68
2023/07/11 01:34:19;;;;;;;9.53;6.27;;;;;;;;;;6262684;28;20216;-68
2023/07/11 01:37:21;;;;;;;7.37;6.67;;;;;;;;;;6265425;28;20185;-68
2023/07/11 01:40:22;;;;;;;7.80;6.67;;;;;;;;;;6254141;28;20187;-68
2023/07/11 01:43:23;;;;;;;7.07;5.97;;;;;;;;;;6259773;28;20288;-68
2023/07/11 01:46:24;;;;;;;6.40;5.80;;;;;;;;;;6247374;28;20202;-68
2023/07/11 01:49:25;;;;;;;8.73;5.73;;;;;;;;;;6238215;28;20575;-68
2023/07/11 01:52:26;;;;;;;8.43;5.83;;;;;;;;;;6252833;28;20206;-67
2023/07/11 01:55:27;;;;;;;9.30;5.53;;;;;;;;;;6276375;28;20182;-68
2023/07/11 01:58:29;;;;;;;6.40;5.07;;;;;;;;;;6275563;28;20323;-68
2023/07/11 02:01:30;;;;;;;8.63;5.70;;;;;;;;;;6255723;28;20262;-68
2023/07/11 02:04:32;;;;;;;7.93;5.97;;;;;;;;;;6263725;28;20207;-68
2023/07/11 02:07:33;;;;;;;6.53;5.93;;;;;;;;;;6254334;28;20258;-68
2023/07/11 02:10:34;;;;;;;7.17;5.93;;;;;;;;;;6254031;28;20188;-68
2023/07/11 02:13:36;;;;;;;7.33;5.10;;;;;;;;;;6250618;28;20210;-68
2023/07/11 02:16:37;;;;;;;7.23;6.20;;;;;;;;;;6250130;28;20190;-68
2023/07/11 02:19:38;;;;;;;9.10;5.83;;;;;;;;;;6250765;28;20194;-68
2023/07/11 02:22:39;;;;;;;7.03;5.97;;;;;;;;;;6247058;28;20336;-68
2023/07/11 02:25:40;;;;;;;6.60;5.90;;;;;;;;;;6258039;28;20201;-68
2023/07/11 02:28:41;;;;;;;10.27;5.70;;;;;;;;;;6257946;28;20196;-67
2023/07/11 02:31:42;;;;;;;6.20;5.60;;;;;;;;;;6256851;28;20220;-68
2023/07/11 02:34:43;;;;;;;8.67;5.90;;;;;;;;;;6253394;28;20233;-68
2023/07/11 02:37:44;;;;;;;6.37;5.77;;;;;;;;;;6251825;28;20194;-68
2023/07/11 02:40:45;;;;;;;8.33;5.30;;;;;;;;;;6284835;28;20181;-67
2023/07/11 02:43:47;;;;;;;6.17;5.63;;;;;;;;;;6267803;28;20272;-68
2023/07/11 02:46:48;;;;;;;7.23;6.37;;;;;;;;;;6264571;28;20189;-68
2023/07/11 02:49:49;;;;;;;7.17;5.60;;;;;;;;;;6276165;28;20193;-68
2023/07/11 02:52:50;;;;;;;10.80;6.70;;;;;;;;;;6252303;28;20219;-67
2023/07/11 02:55:51;;;;;;;7.23;5.77;;;;;;;;;;6252420;28;20202;-68
2023/07/11 02:58:52;;;;;;;8.80;5.90;;;;;;;;;;6272986;28;20186;-67
2023/07/11 03:01:53;;;;;;;8.97;6.03;;;;;;;;;;6251693;28;20196;-68
2023/07/11 03:04:54;;;;;;;6.93;5.63;;;;;;;;;;6251277;28;20198;-68
2023/07/11 03:07:56;;;;;;;8.77;6.07;;;;;;;;;;6236106;28;20198;-68
2023/07/11 03:10:57;;;;;;;7.47;6.07;;;;;;;;;;6251045;28;20311;-68
2023/07/11 03:13:58;;;;;;;7.20;6.00;;;;;;;;;;6259246;28;20301;-68
2023/07/11 03:17:00;;;;;;;7.70;6.30;;;;;;;;;;6248326;28;20194;-69
2023/07/11 03:20:01;;;;;;;8.83;6.00;;;;;;;;;;6251834;28;20190;-68
2023/07/11 03:23:02;;;;;;;7.27;6.00;;;;;;;;;;6246311;28;20196;-68
2023/07/11 03:26:03;;;;;;;6.90;6.10;;;;;;;;;;6247306;28;20295;-68
2023/07/11 03:29:04;;;;;;;9.63;6.67;;;;;;;;;;6252137;28;20213;-68
2023/07/11 03:32:06;;;;;;;7.70;6.10;;;;;;;;;;6266767;28;20225;-68
2023/07/11 03:35:07;;;;;;;7.90;6.97;;;;;;;;;;6256472;28;20183;-68
2023/07/11 03:38:08;;;;;;;7.67;6.23;;;;;;;;;;6244238;28;20194;-68
2023/07/11 03:41:09;;;;;;;7.60;6.10;;;;;;;;;;6280656;28;20196;-66
2023/07/11 03:44:10;;;;;;;8.57;6.40;;;;;;;;;;6246545;28;20205;-66
2023/07/11 03:47:11;;;;;;;11.17;6.77;;;;;;;;;;6259161;28;20181;-66
2023/07/11 03:50:12;;;;;;;6.77;6.13;;;;;;;;;;6245992;28;20186;-67
2023/07/11 03:53:14;;;;;;;9.03;6.53;;;;;;;;;;6258201;28;20263;-67
2023/07/11 03:56:15;;;;;;;7.07;6.37;;;;;;;;;;6266442;28;20193;-66
2023/07/11 03:59:16;;;;;;;10.17;6.27;;;;;;;;;;6246165;28;20190;-67
2023/07/11 04:02:17;;;;;;;12.10;7.13;;;;;;;;;;6239377;28;20185;-66
2023/07/11 04:05:18;;;;;;;7.90;6.97;;;;;;;;;;6267081;28;20189;-66
2023/07/11 04:08:19;;;;;;;7.27;6.00;;;;;;;;;;6249062;28;20194;-66
2023/07/11 04:11:20;;;;;;;9.47;6.47;;;;;;;;;;6277605;28;20190;-66
2023/07/11 04:14:21;;;;;;;7.87;6.13;;;;;;;;;;6252691;28;20213;-65
2023/07/11 04:17:22;;;;;;;8.70;6.00;;;;;;;;;;6265355;28;20277;-66
2023/07/11 04:20:23;;;;;;;6.77;6.07;;;;;;;;;;6242344;28;20191;-65
2023/07/11 04:23:24;;;;;;;8.20;6.53;;;;;;;;;;6270072;28;20177;-66
2023/07/11 04:26:25;;;;;;;10.97;6.57;;;;;;;;;;6248918;28;20236;-65
2023/07/11 04:29:26;;;;;;;8.40;6.47;;;;;;;;;;6255967;28;20193;-64
2023/07/11 04:32:27;;;;;;;6.57;5.83;;;;;;;;;;6248371;28;20213;-66
2023/07/11 04:35:28;;;;;;;9.17;7.00;;;;;;;;;;6233843;28;20190;-64
2023/07/11 04:38:29;;;;;;;10.80;7.10;;;;;;;;;;6256281;28;20322;-65
2023/07/11 04:41:30;;;;;;;9.77;7.17;;;;;;;;;;6255243;28;20187;-65
2023/07/11 04:44:31;;;;;;;9.53;6.57;;;;;;;;;;6269862;28;20268;-68
2023/07/11 04:47:32;;;;;;;13.97;6.73;;;;;;;;;;6253831;28;20195;-68
2023/07/11 04:50:33;;;;;;;9.40;6.93;;;;;;;;;;6269742;28;20186;-68
2023/07/11 04:53:35;;;;;;;6.97;6.27;;;;;;;;;;6254018;28;20209;-67
2023/07/11 04:56:39;;;;;;;7.67;6.67;;;;;;;;;;6252745;28;20187;-68
2023/07/11 04:59:40;;;;;;;8.70;6.07;;;;;;;;;;6258986;28;20186;-68
2023/07/11 05:02:41;;;;;;;7.83;6.57;;;;;;;;;;6246661;28;20193;-68
2023/07/11 05:05:42;;;;;;;7.50;6.70;;;;;;;;;;6254217;28;20188;-68
2023/07/11 05:08:43;;;;;;;7.07;6.37;;;;;;;;;;6252410;28;20197;-68
2023/07/11 05:11:44;;;;;;;9.20;7.17;;;;;;;;;;6244765;28;20219;-65
2023/07/11 05:14:45;;;;;;;8.07;7.03;;;;;;;;;;6265345;28;20240;-65
2023/07/11 05:17:46;;;;;;;9.27;6.97;;;;;;;;;;6245965;28;20335;-65
2023/07/11 05:20:53;;;;;;;9.37;6.50;;;;;;;;;;6251298;28;20277;-65
2023/07/11 05:23:57;;;;;;;9.20;6.23;;;;;;;;;;6265289;28;20198;-64
2023/07/11 05:26:58;;;;;;;7.73;7.03;;;;;;;;;;6280130;28;20288;-65
2023/07/11 05:29:59;;;;;;;8.10;6.90;;;;;;;;;;6261161;28;20193;-64
2023/07/11 05:33:00;;;;;;;7.63;6.93;;;;;;;;;;6280096;28;20211;-66
2023/07/11 05:36:15;;;;;;;9.60;7.40;;;;;;;;;;6244202;28;20198;-67
2023/07/11 05:39:17;;;;;;;7.57;6.83;;;;;;;;;;6260943;28;20186;-68
2023/07/11 05:42:18;;;;;;;10.73;7.33;;;;;;;;;;6252424;28;20198;-66
2023/07/11 05:45:19;;;;;;;7.93;6.97;;;;;;;;;;6247424;28;20259;-66
2023/07/11 05:48:20;;;;;;;11.47;7.27;;;;;;;;;;6249584;28;20183;-66
2023/07/11 05:51:21;;;;;;;10.30;6.67;;;;;;;;;;6252474;28;20197;-67
2023/07/11 05:54:22;;;;;;;12.40;7.00;;;;;;;;;;6260118;28;20221;-69
2023/07/11 05:57:23;;;;;;;10.50;7.30;;;;;;;;;;6253014;28;20200;-69
2023/07/11 06:00:24;;;;;;;8.13;6.80;;;;;;;;;;6253182;28;20186;-69
2023/07/11 06:03:26;;;;;;;9.77;6.77;;;;;;;;;;6250078;28;20186;-69
2023/07/11 06:06:27;;;;;;;7.77;6.97;;;;;;;;;;6250940;28;20190;-68
2023/07/11 06:09:46;;;;;;;6.87;6.17;;;;;;;;;;6257420;28;20185;-69
2023/07/11 06:12:47;;;;;;;7.00;5.70;;;;;;;;;;6252635;28;20211;-68
2023/07/11 06:15:48;;;;;;;8.10;6.40;;;;;;;;;;6252902;28;20193;-68
2023/07/11 06:18:51;;;;;;;7.27;6.23;;;;;;;;;;6257229;28;20192;-68
2023/07/11 06:21:52;;;;;;;7.27;6.57;;;;;;;;;;6264468;28;20182;-68
2023/07/11 06:24:53;;;;;;;8.57;6.70;;;;;;;;;;6249503;28;20193;-68
2023/07/11 06:27:54;;;;;;;7.80;7.00;;;;;;;;;;6245186;28;20264;-68
2023/07/11 06:30:57;;;;;;;7.63;6.50;;;;;;;;;;6249848;28;20197;-68
2023/07/11 06:33:58;;;;;;;8.10;6.37;;;;;;;;;;6265671;28;20207;-68
2023/07/11 06:36:59;;;;;;;7.07;6.37;;;;;;;;;;6253610;28;20217;-69
2023/07/11 06:40:00;;;;;;;8.67;6.70;;;;;;;;;;6254194;28;20235;-69
2023/07/11 06:43:01;;;;;;;9.17;6.67;;;;;;;;;;6246729;28;20191;-69
2023/07/11 06:46:03;;;;;;;7.47;6.63;;;;;;;;;;6246658;28;20191;-69
2023/07/11 06:49:04;;;;;;;8.67;6.93;;;;;;;;;;6271680;28;20190;-69
2023/07/11 06:52:05;;;;;;;7.07;6.47;;;;;;;;;;6248106;28;20276;-68
2023/07/11 06:55:07;;;;;;;9.00;7.17;;;;;;;;;;6256245;28;20221;-68
2023/07/11 06:58:08;;;;;;;7.17;6.47;;;;;;;;;;6268502;28;20232;-68
2023/07/11 07:01:10;;;;;;;7.67;6.93;;;;;;;;;;6253269;28;20216;-68
2023/07/11 07:04:11;;;;;;;7.57;6.80;;;;;;;;;;6249458;28;20201;-69
2023/07/11 07:07:12;;;;;;;8.00;6.97;;;;;;;;;;6253125;28;20186;-68
2023/07/11 07:10:13;;;;;;;8.07;6.17;;;;;;;;;;6257498;28;20221;-69
2023/07/11 07:13:15;;;;;;;7.67;6.97;;;;;;;;;;6245496;28;20284;-69
2023/07/11 07:16:16;;;;;;;7.40;6.70;;;;;;;;;;6263545;28;20182;-69
2023/07/11 07:19:17;;;;;;;8.93;6.87;;;;;;;;;;6272252;28;20254;-69
2023/07/11 07:22:18;;;;;;;8.27;7.47;;;;;;;;;;6236913;28;20187;-69
2023/07/11 07:25:19;;;;;;;7.67;6.87;;;;;;;;;;6252719;28;20198;-68
2023/07/11 07:28:21;;;;;;;7.67;6.97;;;;;;;;;;6252438;28;20312;-67
2023/07/11 07:31:23;;;;;;;7.67;6.90;;;;;;;;;;6266971;28;20189;-68
2023/07/11 07:34:24;;;;;;;10.37;9.27;;;;;;;;;;6265316;28;20203;-68
2023/07/11 07:37:25;;;;;;;10.27;9.17;;;;;;;;;;6239982;28;20210;-68
2023/07/11 07:40:28;;;;;;;10.07;9.07;;;;;;;;;;6269736;28;20186;-68
2023/07/11 07:43:29;;;;;;;11.27;9.27;;;;;;;;;;6257146;28;20245;-68
2023/07/11 07:46:30;;;;;;;14.83;13.30;;;;;;;;;;6256203;28;20190;-68
2023/07/11 07:49:31;;;;;;;18.63;16.67;;;;;;;;;;6266353;28;20186;-69
2023/07/11 07:52:32;;;;;;;36.03;32.23;;;;;;;;;;6265044;28;20246;-69
2023/07/11 07:55:37;;;;;;;23.70;20.93;;;;;;;;;;6275478;28;20190;-69
2023/07/11 07:58:38;;;;;;;26.07;22.60;;;;;;;;;;6267464;28;20183;-69
2023/07/11 08:01:39;;;;;;;45.67;40.87;;;;;;;;;;6255247;28;20202;-69
2023/07/11 08:04:40;;;;;;;25.27;22.73;;;;;;;;;;6256653;28;20256;-69
2023/07/11 08:07:41;;;;;;;11.77;10.57;;;;;;;;;;6248187;28;20190;-68
2023/07/11 08:10:43;;;;;;;10.43;9.50;;;;;;;;;;6268786;28;20255;-69
2023/07/11 08:13:45;;;;;;;14.40;13.00;;;;;;;;;;6250637;28;20210;-69
2023/07/11 08:16:46;;;;;;;21.93;19.10;;;;;;;;;;6266871;28;20190;-68
2023/07/11 08:19:47;;;;;;;11.90;10.60;;;;;;;;;;6287721;28;20230;-68
2023/07/11 08:22:49;;;;;;;14.23;12.90;;;;;;;;;;6255967;28;20218;-68
2023/07/11 08:25:51;;;;;;;11.53;10.07;;;;;;;;;;6256648;28;20265;-69
2023/07/11 08:28:54;;;;;;;9.83;9.00;;;;;;;;;;6293602;28;20200;-69
2023/07/11 08:31:56;;;;;;;16.87;15.17;;;;;;;;;;6253045;28;20190;-68
2023/07/11 08:34:57;;;;;;;10.17;9.17;;;;;;;;;;6268693;28;20213;-67
2023/07/11 08:37:58;;;;;;;9.90;8.97;;;;;;;;;;6243706;28;20189;-67
2023/07/11 08:41:08;;;;;;;9.30;8.50;;;;;;;;;;6254422;28;20182;-69
2023/07/11 08:44:13;;;;;;;9.10;7.90;;;;;;;;;;6266889;28;20285;-68
2023/07/11 08:47:19;;;;;;;8.10;7.40;;;;;;;;;;6253751;28;20233;-68
2023/07/11 08:50:23;;;;;;;9.40;8.40;;;;;;;;;;6268364;28;20197;-67
2023/07/11 08:53:29;;;;;;;8.47;7.53;;;;;;;;;;6271422;28;20248;-67
2023/07/11 08:56:42;;;;;;;10.47;8.83;;;;;;;;;;6272242;28;20191;-66
2023/07/11 08:59:55;;;;;;;8.93;8.13;;;;;;;;;;6268945;28;20276;-68
2023/07/11 09:03:10;;;;;;;9.50;8.50;;;;;;;;;;6260187;28;20208;-66
2023/07/11 09:06:35;;;;;;;9.00;7.70;;;;;;;;;;6258113;28;20198;-69
2023/07/11 09:09:37;;;;;;;8.87;7.67;;;;;;;;;;6258911;28;20290;-66
2023/07/11 09:12:56;;;;;;;9.20;8.37;;;;;;;;;;6257376;28;20213;-68
2023/07/11 09:16:06;;;;;;;8.50;7.77;;;;;;;;;;6260536;28;20198;-68
2023/07/11 09:19:11;;;;;;;8.43;7.60;;;;;;;;;;6254884;28;20182;-67
2023/07/11 09:22:18;;;;;;;8.23;7.43;;;;;;;;;;6255835;28;20210;-69
2023/07/11 09:25:22;;;;;;;9.17;8.27;;;;;;;;;;6268164;28;20186;-70
2023/07/11 09:28:25;;;;;;;8.80;7.90;;;;;;;;;;6269099;28;20226;-71
2023/07/11 09:31:27;;;;;;;8.33;7.53;;;;;;;;;;6271178;28;20201;-68
2023/07/11 09:34:32;;;;;;;8.67;7.73;;;;;;;;;;6252568;28;20216;-68
2023/07/11 09:37:36;;;;;;;8.63;7.87;;;;;;;;;;6258740;28;20182;-68
2023/07/11 09:40:41;;;;;;;8.40;7.60;;;;;;;;;;6303853;28;20213;-69
2023/07/11 09:43:43;;;;;;;7.77;7.10;;;;;;;;;;6268701;28;20194;-69
2023/07/11 09:46:44;;;;;;;8.27;7.57;;;;;;;;;;6255692;28;20274;-70
2023/07/11 09:49:47;;;;;;;8.20;7.50;;;;;;;;;;6247745;28;20190;-69
2023/07/11 09:52:48;;;;;;;9.20;7.43;;;;;;;;;;6271543;28;20207;-68
2023/07/11 09:56:00;;;;;;;8.73;7.87;;;;;;;;;;6248512;28;20206;-72
2023/07/11 09:59:02;;;;;;;8.50;7.20;;;;;;;;;;6271660;28;20178;-69
2023/07/11 10:02:04;;;;;;;8.47;7.67;;;;;;;;;;6254998;28;20190;-69
2023/07/11 10:05:05;;;;;;;9.10;8.20;;;;;;;;;;6266322;28;20216;-70
2023/07/11 10:08:14;;;;;;;7.63;6.93;;;;;;;;;;6245616;28;20201;-71
2023/07/11 10:11:15;;;;;;;7.87;7.17;;;;;;;;;;6265031;28;20229;-71
2023/07/11 10:14:20;;;;;;;8.57;7.87;;;;;;;;;;6254684;28;20236;-72
2023/07/11 10:17:22;;;;;;;8.43;7.50;;;;;;;;;;6271186;28;20193;-70
2023/07/11 10:20:25;;;;;;;7.97;7.27;;;;;;;;;;6264439;28;20186;-70
2023/07/11 10:23:26;;;;;;;8.07;7.30;;;;;;;;;;6249937;28;20190;-70
2023/07/11 10:26:28;;;;;;;8.33;7.47;;;;;;;;;;6259213;28;20237;-71
2023/07/11 10:29:31;;;;;;;8.00;7.20;;;;;;;;;;6248156;28;20288;-70
2023/07/11 10:32:41;;;;;;;9.97;7.93;;;;;;;;;;6263214;28;20190;-71
2023/07/11 10:35:42;;;;;;;8.47;7.57;;;;;;;;;;6253177;28;20194;-70
2023/07/11 10:38:55;;;;;;;9.43;7.93;;;;;;;;;;6243313;28;20201;-69
2023/07/11 10:42:00;;;;;;;8.20;7.27;;;;;;;;;;6267855;28;20193;-69
2023/07/11 10:45:23;;;;;;;8.57;7.87;;;;;;;;;;6261636;28;20191;-70
2023/07/11 10:48:32;;;;;;;9.77;7.77;;;;;;;;;;6259123;28;20202;-69
2023/07/11 10:51:49;;;;;;;8.83;7.90;;;;;;;;;;6273748;28;20262;-69
2023/07/11 10:55:26;;;;;;;8.83;7.93;;;;;;;;;;6264103;28;20217;-70
2023/07/11 10:58:27;;;;;;;8.73;7.30;;;;;;;;;;6262975;28;20224;-68
2023/07/11 11:01:31;;;;;;;8.13;7.43;;;;;;;;;;6258449;28;20243;-68
2023/07/11 11:04:40;;;;;;;10.53;8.03;;;;;;;;;;6273826;28;20197;-69
2023/07/11 11:07:43;;;;;;;9.40;8.10;;;;;;;;;;6262674;28;20186;-68
2023/07/11 11:10:51;;;;;;;8.80;8.00;;;;;;;;;;6268830;28;20178;-69
2023/07/11 11:14:01;;;;;;;9.13;8.27;;;;;;;;;;6270881;28;20218;-70
2023/07/11 11:17:23;;;;;;;8.00;7.30;;;;;;;;;;6262068;28;20265;-69
2023/07/11 11:20:43;;;;;;;9.03;8.23;;;;;;;;;;6262529;28;20222;-69
2023/07/11 11:23:47;;;;;;;8.67;7.90;;;;;;;;;;6258672;28;20183;-69
2023/07/11 11:26:49;;;;;;;8.97;8.07;;;;;;;;;;6272365;28;20305;-68
2023/07/11 11:30:00;;;;;;;10.07;7.63;;;;;;;;;;6261289;28;20225;-68
2023/07/11 11:33:24;;;;;;;10.50;7.70;;;;;;;;;;6257127;28;20222;-69
2023/07/11 11:36:35;;;;;;;7.90;7.20;;;;;;;;;;6256800;28;20191;-68
2023/07/11 11:39:54;;;;;;;9.17;7.20;;;;;;;;;;6250566;28;20209;-68
2023/07/11 11:42:58;;;;;;;10.23;7.57;;;;;;;;;;6261947;28;20198;-68
2023/07/11 11:46:01;;;;;;;8.57;7.87;;;;;;;;;;6270953;28;20190;-69
2023/07/11 11:49:03;;;;;;;8.97;8.13;;;;;;;;;;6270862;28;20194;-69
2023/07/11 11:52:05;;;;;;;9.17;8.30;;;;;;;;;;6250892;28;20201;-69
2023/07/11 11:55:26;;;;;;;8.80;7.93;;;;;;;;;;6272197;28;20213;-69
2023/07/11 11:58:30;;;;;;;10.27;7.60;;;;;;;;;;6271885;28;20182;-70
2023/07/11 12:01:35;;;;;;;9.13;8.23;;;;;;;;;;6263262;28;20195;-69
2023/07/11 12:04:38;;;;;;;8.63;7.73;;;;;;;;;;6259832;28;20186;-70
2023/07/11 12:07:40;;;;;;;8.73;8.03;;;;;;;;;;6254443;28;20186;-70
2023/07/11 12:11:00;;;;;;;8.00;7.20;;;;;;;;;;6261798;28;20190;-69
2023/07/11 12:14:25;;;;;;;8.17;7.47;;;24.20;73.60;;;;;;6266364;28;20217;-70
2023/07/11 12:17:32;;;;;;;7.63;6.80;;;;;;;;;;6269402;28;20194;-72
2023/07/11 12:20:32;;;;;;;12.03;7.50;;;31.80;53.70;;;;;;6256930;28;20222;-69
2023/07/11 12:23:33;;;;;;;8.30;7.17;;;32.70;51.00;;;;;;6256872;28;20186;-71
2023/07/11 12:26:34;;;;;;;7.90;7.10;;;33.00;48.20;;;;;;6245331;28;20233;-71
2023/07/11 12:29:34;;;;;;;7.40;6.67;;;33.10;47.20;;;;;;6246642;28;20193;-68
2023/07/11 12:32:50;;;;;;;7.20;6.60;;;33.40;49.40;;;;;;6270804;28;20185;-69
2023/07/11 12:35:59;;;;;;;7.67;7.00;;;;;;;;;;6243797;28;20198;-69
2023/07/11 12:39:09;;;;;;;9.50;7.30;;;34.50;49.30;;;;;;6272190;28;20241;-68
2023/07/11 12:42:47;;;;;;;8.10;7.33;;;34.70;49.70;;;;;;6259041;28;20199;-67
2023/07/11 12:45:54;;;;;;;7.77;7.03;;;35.00;49.60;;;;;;6284002;28;20234;-68
2023/07/11 12:48:56;;;;;;;7.67;6.97;;;35.30;46.90;;;;;;6267935;28;20190;-68
2023/07/11 12:52:10;;;;;;;8.80;6.73;;;35.60;45.60;;;;;;6255755;28;20216;-69
2023/07/11 12:55:11;;;;;;;7.23;6.37;;;35.80;44.50;;;;;;6267705;28;20210;-69
2023/07/11 12:58:20;;;;;;;8.00;7.03;;;36.00;43.60;;;;;;6278925;28;20239;-68
2023/07/11 13:01:20;;;;;;;7.10;6.40;;;36.30;45.20;;;;;;6274205;28;20178;-69
2023/07/11 13:04:33;;;;;;;7.13;6.57;;;36.40;42.30;;;;;;6270630;28;20281;-68
2023/07/11 13:07:35;;;;;;;6.90;6.30;;;36.50;42.10;;;;;;6269847;28;20213;-68
2023/07/11 13:10:36;;;;;;;8.63;6.93;;;36.50;43.10;;;;;;6271498;28;20190;-69
2023/07/11 13:13:38;;;;;;;6.73;6.13;;;36.70;44.00;;;;;;6251306;28;20214;-69
2023/07/11 13:16:40;;;;;;;7.83;5.73;;;36.90;42.00;;;;;;6254342;28;20201;-68
2023/07/11 13:19:42;;;;;;;7.33;5.90;;;36.90;42.30;;;;;;6268568;28;20178;-68
2023/07/11 13:22:43;;;;;;;6.20;5.40;;;37.10;41.90;;;;;;6253658;28;20201;-69
2023/07/11 13:25:44;;;;;;;7.13;6.43;;;37.20;42.60;;;;;;6248667;28;20186;-68
2023/07/11 13:28:54;;;;;;;6.27;5.77;;;37.30;43.00;;;;;;6258611;28;20239;-68
2023/07/11 13:32:04;;;;;;;7.00;6.27;;;37.20;41.50;;;;;;6259876;28;20192;-68
2023/07/11 13:35:15;;;;;;;7.80;6.33;;;37.20;42.80;;;;;;6268289;28;20217;-68
2023/07/11 13:38:16;;;;;;;7.20;6.60;;;37.30;43.20;;;;;;6261583;28;20190;-69
2023/07/11 13:41:26;;;;;;;9.17;7.10;;;37.40;41.40;;;;;;6266745;28;20196;-69
2023/07/11 13:44:33;;;;;;;7.70;7.10;;;37.40;42.80;;;;;;6264787;28;20280;-69
2023/07/11 13:47:44;;;;;;;7.87;6.80;;;37.50;42.60;;;;;;6266244;28;20277;-69
2023/07/11 13:50:45;;;;;;;8.63;7.73;;;37.30;42.60;;;;;;6262520;28;20198;-69
2023/07/11 13:54:04;;;;;;;6.27;5.73;;;37.20;43.70;;;;;;6256926;28;20213;-69
2023/07/11 13:57:05;;;;;;;7.13;6.43;;;37.10;44.10;;;;;;6256869;28;20186;-69
2023/07/11 14:00:07;;;;;;;7.50;6.80;;;;;;;;;;6271288;28;20218;-69
2023/07/11 14:03:14;;;;;;;7.60;6.80;;;;;;;;;;6261233;28;20185;-69
2023/07/11 14:06:16;;;;;;;6.97;6.47;;;;;;;;;;6262721;28;20195;-69
2023/07/11 14:09:17;;;;;;;7.80;6.97;;;;;;;;;;6271321;28;20200;-69
2023/07/11 14:12:19;;;;;;;8.30;6.33;;;;;;;;;;6259932;28;20243;-69
2023/07/11 14:15:21;;;;;;;6.97;6.07;;;;;;;;;;6251873;28;20218;-69
2023/07/11 14:18:22;;;;;;;7.80;6.00;;;-20.10;40.90;;;;;;6274918;28;20193;-69
2023/07/11 14:21:23;;;;;;;7.33;6.60;;;-16.30;42.40;;;;;;6259214;28;20193;-69
2023/07/11 14:24:25;;;;;;;7.37;6.77;;;36.10;45.40;;;;;;6258294;28;20204;-68
2023/07/11 14:27:26;;;;;;;7.50;6.90;;;36.00;44.00;;;;;;6250775;28;20250;-69
2023/07/11 14:30:27;;;;;;;7.07;6.33;;;35.80;45.40;;;;;;6234087;28;20198;-68
2023/07/11 14:33:33;;;;;;;7.00;6.30;;;35.80;44.50;;;;;;6255876;28;20259;-68
2023/07/11 14:36:33;;;;;;;7.00;6.30;;;35.60;43.00;;;;;;6268708;28;20191;-68
2023/07/11 14:39:35;;;;;;;6.37;5.73;;;;;;;;;;6248713;28;20200;-68
2023/07/11 14:42:36;;;;;;;7.27;6.60;;;;;;;;;;6246067;28;20224;-68
2023/07/11 14:45:38;;;;;;;7.47;6.87;;;;;;;;;;6249780;28;20197;-68
2023/07/11 14:48:39;;;;;;;7.30;6.70;;;;;;;;;;6263565;28;20200;-69
2023/07/11 14:51:40;;;;;;;7.37;6.70;;;;;;;;;;6272121;28;20186;-69
2023/07/11 14:54:40;;;;;;;7.43;6.73;;;35.00;45.50;;;;;;6257712;28;20232;-68
2023/07/11 14:57:42;;;;;;;7.40;6.80;;;34.80;45.70;;;;;;6249602;28;20186;-68
2023/07/11 15:00:43;;;;;;;7.10;6.50;;;;;;;;;;6272194;28;20189;-69
2023/07/11 15:03:44;;;;;;;5.87;5.47;;;;;;;;;;6269653;28;20268;-69
2023/07/11 15:06:46;;;;;;;6.97;6.27;;;;;;;;;;6262171;28;20194;-68
2023/07/11 15:09:47;;;;;;;10.30;7.10;;;;;;;;;;6257614;28;20201;-68
2023/07/11 15:12:48;;;;;;;8.57;6.23;;;;;;;;;;6269826;28;20190;-68
2023/07/11 15:15:53;;;;;;;8.73;7.00;;;32.10;49.70;;;;;;6259116;28;20232;-68
2023/07/11 15:18:53;;;;;;;7.90;6.97;;;31.90;50.40;;;;;;6272438;28;20182;-69
2023/07/11 15:22:04;;;;;;;8.73;7.07;;;;;;;;;;6248920;28;20197;-68
2023/07/11 15:25:13;;;;;;;7.90;7.20;;;;;;;;;;6259932;28;20220;-68
2023/07/11 15:28:28;;;;;;;7.70;7.00;;;;;;;;;;6254360;28;20243;-68
2023/07/11 15:31:29;;;;;;;7.47;6.57;;;;;;;;;;6269517;28;20190;-68
2023/07/11 15:34:31;;;;;;;7.37;6.70;;;;;;;;;;6249940;28;20282;-68
2023/07/11 15:37:34;;;;;;;43.90;21.77;;;;;;;;;;6242403;28;20245;-73
2023/07/11 15:40:37;;;;;;;77.97;38.57;;;;;;;;;;6270665;28;20190;-71
2023/07/11 15:43:40;;;;;;;82.27;38.83;;;;;;;;;;6253508;28;20183;-69
2023/07/11 15:46:41;;;;;;;79.67;38.33;;;;;;;;;;6263586;28;20285;-68
2023/07/11 15:49:42;;;;;;;66.70;31.93;;;;;;;;;;6262084;28;20275;-69
2023/07/11 15:52:44;;;;;;;41.40;18.70;;;;;;;;;;6257324;28;20194;-70
2023/07/11 15:55:45;;;;;;;45.87;24.30;;;;;;;;;;6256025;28;20195;-69
2023/07/11 15:58:46;;;;;;;31.37;18.13;;;;;;;;;;6269630;28;20273;-69
2023/07/11 16:01:48;;;;;;;25.13;15.13;;;;;;;;;;6266749;28;20194;-70
2023/07/11 16:04:49;;;;;;;29.47;17.23;;;;;;;;;;6257899;28;20202;-69
2023/07/11 16:07:50;;;;;;;26.40;14.93;;;;;;;;;;6247606;28;20198;-70
2023/07/11 16:10:56;;;;;;;13.90;11.43;;;;;;;;;;6262313;28;20276;-70
2023/07/11 16:13:57;;;;;;;12.97;10.10;;;;;;;;;;6264180;28;20214;-71
2023/07/11 16:16:58;;;;;;;19.07;11.53;;;;;;;;;;6250775;28;20281;-69
2023/07/11 16:19:59;;;;;;;18.60;10.57;;;;;;;;;;6266896;28;20186;-69
2023/07/11 16:23:00;;;;;;;31.77;16.10;;;;;;;;;;6259024;28;20221;-68
2023/07/11 16:26:01;;;;;;;21.53;11.57;;;;;;;;;;6267367;28;20237;-69
2023/07/11 16:29:03;;;;;;;17.33;10.73;;;;;;;;;;6249009;28;20289;-68
2023/07/11 16:32:04;;;;;;;22.07;11.93;;;;;;;;;;6261079;28;20194;-67
2023/07/11 16:35:05;;;;;;;11.90;9.53;;;;;;;;;;6270906;28;20363;-68
2023/07/11 16:38:06;;;;;;;16.10;11.23;;;;;;;;;;6246952;28;20185;-70
2023/07/11 16:41:07;;;;;;;10.23;9.23;;;;;;;;;;6261930;28;20220;-68
2023/07/11 16:44:08;;;;;;;10.30;8.73;;;;;;;;;;6241948;28;20198;-69
2023/07/11 16:47:10;;;;;;;8.83;7.93;;;;;;;;;;6273618;28;20221;-69
2023/07/11 16:50:16;;;;;;;9.37;8.57;;;;;;;;;;6261513;28;20217;-70
2023/07/11 16:53:35;;;;;;;9.40;8.60;;;;;;;;;;6277490;28;20198;-69
2023/07/11 16:56:36;;;;;;;9.93;8.90;;;;;;;;;;6259732;28;20186;-70
2023/07/11 16:59:37;;;;;;;195.97;124.33;;;;;;;;;;6271617;28;20214;-69
2023/07/11 17:02:38;;;;;;;379.27;241.43;;;;;;;;;;6276226;28;20217;-71
2023/07/11 17:05:39;;;;;;;621.60;555.63;;;;;;;;;;6275252;28;20208;-67
2023/07/11 17:08:40;;;;;;;349.80;312.87;;;;;;;;;;6254023;28;20197;-68
2023/07/11 17:11:42;;;;;;;52.93;47.13;;;;;;;;;;6253368;28;20190;-68
2023/07/11 17:14:43;;;;;;;23.67;21.23;;;;;;;;;;6260846;28;20222;-67
2023/07/11 17:17:44;;;;;;;18.93;17.13;;;;;;;;;;6280496;28;20225;-65
2023/07/11 17:20:46;;;;;;;15.27;12.63;;;;;;;;;;6262086;28;20205;-64
2023/07/11 17:23:47;;;;;;;10.70;9.80;;;;;;;;;;6252479;28;20195;-68
2023/07/11 17:26:50;;;;;;;10.13;9.20;;;;;;;;;;6256022;28;20323;-70
2023/07/11 17:29:52;;;;;;;10.33;9.20;;;;;;;;;;6269108;28;20305;-69
2023/07/11 17:32:53;;;;;;;9.83;8.93;;;;;;;;;;6266969;28;20182;-70
2023/07/11 17:35:55;;;;;;;10.07;9.03;;;;;;;;;;6265010;28;20198;-69
2023/07/11 17:38:56;;;;;;;10.00;9.00;;;;;;;;;;6260370;28;20194;-72
2023/07/11 17:42:02;;;;;;;10.10;8.73;;;;;;;;;;6252242;28;20194;-70
2023/07/11 17:45:04;;;;;;;30.47;14.23;;;;;;;;;;6262254;28;20250;-73
2023/07/11 17:48:06;;;;;;;28.07;15.80;;;;;;;;;;6267791;28;20202;-72
2023/07/11 17:51:09;;;;;;;90.40;36.00;;;;;;;;;;6276311;28;20217;-73